createdAt,value
2019-02-09T00:00:12.159Z,97978.00
2019-02-09T00:02:17.283Z,97972.00
2019-02-09T00:04:22.448Z,97974.00
2019-02-09T00:06:27.521Z,97967.00
2019-02-09T00:08:33.185Z,97977.00
2019-02-09T00:10:38.508Z,97964.00
2019-02-09T00:12:43.574Z,97968.00
2019-02-09T00:14:48.585Z,97973.00
2019-02-09T00:16:53.682Z,97967.00
2019-02-09T00:18:58.663Z,97974.00
2019-02-09T00:21:04.007Z,97973.00
2019-02-09T00:23:09.485Z,97953.00
2019-02-09T00:25:15.082Z,97964.00
2019-02-09T00:27:20.083Z,97954.00
2019-02-09T00:29:25.227Z,97957.00
2019-02-09T00:31:30.291Z,97966.00
2019-02-09T00:33:35.397Z,97956.00
2019-02-09T00:35:40.581Z,97962.00
2019-02-09T00:37:45.733Z,97969.00
2019-02-09T00:39:50.859Z,97961.00
2019-02-09T00:41:55.897Z,97957.00
2019-02-09T00:44:00.915Z,97955.00
2019-02-09T00:46:06.280Z,97952.00
2019-02-09T00:48:11.349Z,97955.00
2019-02-09T00:50:17.232Z,97957.00
2019-02-09T00:52:22.301Z,97953.00
2019-02-09T00:54:27.369Z,97965.00
2019-02-09T00:56:32.623Z,97957.00
2019-02-09T00:58:37.869Z,97955.00
2019-02-09T01:00:43.985Z,97964.00
2019-02-09T01:02:49.120Z,97949.00
2019-02-09T01:04:54.582Z,97953.00
2019-02-09T01:06:59.648Z,97958.00
2019-02-09T01:09:13.533Z,97951.00
2019-02-09T01:11:18.783Z,97953.00
2019-02-09T01:13:23.788Z,97954.00
2019-02-09T01:15:28.955Z,97957.00
2019-02-09T01:17:33.971Z,97941.00
2019-02-09T01:19:38.893Z,97940.00
2019-02-09T01:21:43.906Z,97934.00
2019-02-09T01:23:48.998Z,97935.00
2019-02-09T01:25:54.264Z,97936.00
2019-02-09T01:27:59.263Z,97933.00
2019-02-09T01:30:05.916Z,97934.00
2019-02-09T01:32:11.074Z,97912.00
2019-02-09T01:34:16.188Z,97918.00
2019-02-09T01:36:21.394Z,97907.00
2019-02-09T01:38:26.597Z,97909.00
2019-02-09T01:40:31.750Z,97912.00
2019-02-09T01:42:36.981Z,97926.00
2019-02-09T01:44:42.129Z,97913.00
2019-02-09T01:46:47.075Z,97926.00
2019-02-09T01:48:52.019Z,97905.00
2019-02-09T01:50:57.246Z,97896.00
2019-02-09T01:53:02.614Z,97883.00
2019-02-09T01:55:08.692Z,97887.00
2019-02-09T01:57:13.788Z,97880.00
2019-02-09T01:59:18.798Z,97880.00
2019-02-09T02:01:23.985Z,97896.00
2019-02-09T02:03:29.049Z,97893.00
2019-02-09T02:05:34.297Z,97886.00
2019-02-09T02:07:39.402Z,97895.00
2019-02-09T02:09:44.538Z,97883.00
2019-02-09T02:11:49.639Z,97889.00
2019-02-09T02:13:54.655Z,97896.00
2019-02-09T02:15:59.888Z,97894.00
2019-02-09T02:18:06.031Z,97896.00
2019-02-09T02:20:15.967Z,97903.00
2019-02-09T02:22:20.959Z,97898.00
2019-02-09T02:24:26.135Z,97897.00
2019-02-09T02:26:31.310Z,97906.00
2019-02-09T02:28:36.439Z,97902.00
2019-02-09T02:30:41.609Z,97909.00
2019-02-09T02:32:46.748Z,97891.00
2019-02-09T02:34:51.980Z,97898.00
2019-02-09T02:36:57.106Z,97882.00
2019-02-09T02:39:02.054Z,97893.00
2019-02-09T02:41:07.233Z,97888.00
2019-02-09T02:43:12.410Z,97892.00
2019-02-09T02:45:17.928Z,97884.00
2019-02-09T02:47:23.050Z,97878.00
2019-02-09T02:49:28.278Z,97880.00
2019-02-09T02:51:33.257Z,97889.00
2019-02-09T02:53:38.340Z,97886.00
2019-02-09T02:55:43.535Z,97861.00
2019-02-09T02:57:50.290Z,97882.00
2019-02-09T02:59:55.353Z,97889.00
2019-02-09T03:02:00.554Z,97887.00
2019-02-09T03:04:06.096Z,97895.00
2019-02-09T03:06:11.249Z,97889.00
2019-02-09T03:08:16.349Z,97873.00
2019-02-09T03:10:22.064Z,97859.00
2019-02-09T03:12:27.054Z,97868.00
2019-02-09T03:14:33.345Z,97877.00
2019-02-09T03:16:39.408Z,97887.00
2019-02-09T03:18:44.596Z,97894.00
2019-02-09T03:20:49.648Z,97893.00
2019-02-09T03:22:54.705Z,97881.00
2019-02-09T03:24:59.814Z,97883.00
2019-02-09T03:27:05.046Z,97884.00
2019-02-09T03:29:10.107Z,97892.00
2019-02-09T03:31:15.235Z,97900.00
2019-02-09T03:33:20.290Z,97888.00
2019-02-09T03:35:25.758Z,97894.00
2019-02-09T03:37:30.848Z,97889.00
2019-02-09T03:39:35.877Z,97894.00
2019-02-09T03:41:40.902Z,97897.00
2019-02-09T03:43:45.901Z,97906.00
2019-02-09T03:45:50.890Z,97908.00
2019-02-09T03:47:56.104Z,97915.00
2019-02-09T03:50:01.234Z,97910.00
2019-02-09T03:52:06.467Z,97917.00
2019-02-09T03:54:11.655Z,97918.00
2019-02-09T03:56:16.640Z,97928.00
2019-02-09T03:58:21.708Z,97928.00
2019-02-09T04:00:29.357Z,97928.00
2019-02-09T04:02:34.476Z,97935.00
2019-02-09T04:04:39.734Z,97933.00
2019-02-09T04:06:44.888Z,97924.00
2019-02-09T04:08:50.045Z,97920.00
2019-02-09T04:10:55.294Z,97935.00
2019-02-09T04:13:00.455Z,97921.00
2019-02-09T04:15:07.306Z,97926.00
2019-02-09T04:17:12.310Z,97922.00
2019-02-09T04:19:17.393Z,97931.00
2019-02-09T04:21:22.595Z,97926.00
2019-02-09T04:23:27.641Z,97916.00
2019-02-09T04:25:32.728Z,97919.00
2019-02-09T04:27:37.731Z,97927.00
2019-02-09T04:29:42.822Z,97919.00
2019-02-09T04:31:47.963Z,97915.00
2019-02-09T04:33:52.947Z,97921.00
2019-02-09T04:35:58.115Z,97925.00
2019-02-09T04:38:03.331Z,97918.00
2019-02-09T04:40:10.412Z,97915.00
2019-02-09T04:42:15.398Z,97925.00
2019-02-09T04:44:20.413Z,97933.00
2019-02-09T04:46:25.358Z,97936.00
2019-02-09T04:48:30.445Z,97934.00
2019-02-09T04:50:35.616Z,97939.00
2019-02-09T04:52:40.741Z,97947.00
2019-02-09T04:54:45.952Z,97955.00
2019-02-09T04:56:50.950Z,97952.00
2019-02-09T04:58:55.945Z,97960.00
2019-02-09T05:01:01.166Z,97956.00
2019-02-09T05:03:06.390Z,97970.00
2019-02-09T05:05:13.154Z,97978.00
2019-02-09T05:07:19.451Z,97981.00
2019-02-09T05:09:24.541Z,97980.00
2019-02-09T05:11:29.563Z,97996.00
2019-02-09T05:13:34.510Z,97983.00
2019-02-09T05:15:39.701Z,97984.00
2019-02-09T05:17:44.779Z,97988.00
2019-02-09T05:19:49.940Z,97991.00
2019-02-09T05:21:54.864Z,97989.00
2019-02-09T05:23:59.931Z,98000.00
2019-02-09T05:26:05.300Z,97999.00
2019-02-09T05:28:10.471Z,98000.00
2019-02-09T05:30:22.029Z,98011.00
2019-02-09T05:32:27.164Z,98005.00
2019-02-09T05:34:32.227Z,98006.00
2019-02-09T05:36:37.254Z,98010.00
2019-02-09T05:38:42.284Z,98007.00
2019-02-09T05:40:47.433Z,98007.00
2019-02-09T05:42:52.772Z,98001.00
2019-02-09T05:44:57.840Z,98012.00
2019-02-09T05:47:02.924Z,98012.00
2019-02-09T05:49:07.946Z,98016.00
2019-02-09T05:51:13.304Z,98022.00
2019-02-09T05:53:18.302Z,98025.00
2019-02-09T05:55:23.839Z,98026.00
2019-02-09T05:57:28.881Z,98035.00
2019-02-09T05:59:33.863Z,98037.00
2019-02-09T06:01:38.797Z,98035.00
2019-02-09T06:03:43.887Z,98041.00
2019-02-09T06:05:49.085Z,98048.00
2019-02-09T06:07:54.326Z,98056.00
2019-02-09T06:09:59.238Z,98058.00
2019-02-09T06:12:04.408Z,98064.00
2019-02-09T06:14:09.684Z,98060.00
2019-02-09T06:16:14.828Z,98061.00
2019-02-09T06:18:19.845Z,98068.00
2019-02-09T06:20:26.472Z,98077.00
2019-02-09T06:22:31.527Z,98082.00
2019-02-09T06:24:36.665Z,98080.00
2019-02-09T06:26:41.675Z,98079.00
2019-02-09T06:28:46.750Z,98074.00
2019-02-09T06:30:51.815Z,98088.00
2019-02-09T06:32:57.012Z,98079.00
2019-02-09T06:35:02.148Z,98081.00
2019-02-09T06:37:07.243Z,98092.00
2019-02-09T06:39:12.579Z,98105.00
2019-02-09T06:41:17.915Z,98101.00
2019-02-09T06:43:22.862Z,98097.00
2019-02-09T06:45:28.034Z,98107.00
2019-02-09T06:47:32.991Z,98119.00
2019-02-09T06:49:37.909Z,98113.00
2019-02-09T06:51:43.061Z,98106.00
2019-02-09T06:53:48.058Z,98105.00
2019-02-09T06:55:53.455Z,98115.00
2019-02-09T06:57:58.612Z,98103.00
2019-02-09T07:00:04.700Z,98111.00
2019-02-09T07:02:09.831Z,98105.00
2019-02-09T07:04:14.743Z,98113.00
2019-02-09T07:06:19.876Z,98100.00
2019-02-09T07:08:24.975Z,98115.00
2019-02-09T07:10:30.184Z,98119.00
2019-02-09T07:12:35.393Z,98119.00
2019-02-09T07:14:40.492Z,98111.00
2019-02-09T07:16:45.511Z,98111.00
2019-02-09T07:18:50.533Z,98120.00
2019-02-09T07:20:55.529Z,98122.00
2019-02-09T07:23:00.714Z,98120.00
2019-02-09T07:25:07.585Z,98126.00
2019-02-09T07:27:12.928Z,98115.00
2019-02-09T07:29:17.930Z,98112.00
2019-02-09T07:31:23.022Z,98118.00
2019-02-09T07:33:28.126Z,98134.00
2019-02-09T07:35:33.330Z,98145.00
2019-02-09T07:37:39.883Z,98159.00
2019-02-09T07:39:44.951Z,98163.00
2019-02-09T07:41:50.067Z,98174.00
2019-02-09T07:43:55.095Z,98176.00
2019-02-09T07:46:00.291Z,98175.00
2019-02-09T07:48:06.530Z,98172.00
2019-02-09T07:50:13.725Z,98174.00
2019-02-09T07:52:18.764Z,98197.00
2019-02-09T07:54:24.231Z,98184.00
2019-02-09T07:56:29.385Z,98182.00
2019-02-09T07:58:34.617Z,98178.00
2019-02-09T08:00:39.817Z,98155.00
2019-02-09T08:02:44.879Z,98190.00
2019-02-09T08:04:50.031Z,98192.00
2019-02-09T08:06:55.249Z,98182.00
2019-02-09T08:09:00.301Z,98189.00
2019-02-09T08:11:09.323Z,98188.00
2019-02-09T08:13:12.434Z,98195.00
2019-02-09T08:15:21.375Z,98201.00
2019-02-09T08:17:26.571Z,98211.00
2019-02-09T08:19:31.476Z,98206.00
2019-02-09T08:21:36.617Z,98217.00
2019-02-09T08:23:41.707Z,98230.00
2019-02-09T08:25:46.849Z,98228.00
2019-02-09T08:27:52.312Z,98242.00
2019-02-09T08:29:57.396Z,98232.00
2019-02-09T08:32:02.554Z,98224.00
2019-02-09T08:34:07.708Z,98240.00
2019-02-09T08:36:12.772Z,98243.00
2019-02-09T08:38:18.138Z,98243.00
2019-02-09T08:40:23.290Z,98266.00
2019-02-09T08:42:28.291Z,98260.00
2019-02-09T08:44:33.318Z,98270.00
2019-02-09T08:46:38.566Z,98275.00
2019-02-09T08:48:43.635Z,98264.00
2019-02-09T08:51:00.032Z,98273.00
2019-02-09T08:53:05.499Z,98284.00
2019-02-09T08:55:10.739Z,98270.00
2019-02-09T08:57:15.790Z,98269.00
2019-02-09T08:59:20.746Z,98280.00
2019-02-09T09:01:25.807Z,98270.00
2019-02-09T09:03:31.870Z,98262.00
2019-02-09T09:05:37.363Z,98275.00
2019-02-09T09:07:42.464Z,98280.00
2019-02-09T09:09:47.478Z,98258.00
2019-02-09T09:11:52.452Z,98288.00
2019-02-09T09:13:57.555Z,98272.00
2019-02-09T09:16:08.173Z,98271.00
2019-02-09T09:18:13.373Z,98274.00
2019-02-09T09:20:26.050Z,98269.00
2019-02-09T09:22:31.055Z,98286.00
2019-02-09T09:24:36.076Z,98289.00
2019-02-09T09:26:41.151Z,98294.00
2019-02-09T09:28:46.371Z,98287.00
2019-02-09T09:30:51.452Z,98292.00
2019-02-09T09:32:56.913Z,98283.00
2019-02-09T09:35:02.063Z,98289.00
2019-02-09T09:37:07.227Z,98296.00
2019-02-09T09:39:12.380Z,98289.00
2019-02-09T09:41:17.466Z,98300.00
2019-02-09T09:43:22.566Z,98288.00
2019-02-09T09:45:31.083Z,98278.00
2019-02-09T09:47:36.196Z,98290.00
2019-02-09T09:49:41.256Z,98290.00
2019-02-09T09:51:46.535Z,98291.00
2019-02-09T09:53:51.619Z,98301.00
2019-02-09T09:55:56.633Z,98302.00
2019-02-09T09:58:01.927Z,98299.00
2019-02-09T10:00:08.968Z,98297.00
2019-02-09T10:02:14.007Z,98298.00
2019-02-09T10:04:18.988Z,98312.00
2019-02-09T10:06:23.988Z,98306.00
2019-02-09T10:08:29.234Z,98291.00
2019-02-09T10:10:34.442Z,98310.00
2019-02-09T10:12:39.440Z,98293.00
2019-02-09T10:14:44.804Z,98302.00
2019-02-09T10:16:49.839Z,98330.00
2019-02-09T10:18:55.000Z,98321.00
2019-02-09T10:21:00.169Z,98318.00
2019-02-09T10:23:05.808Z,98309.00
2019-02-09T10:25:11.687Z,98322.00
2019-02-09T10:27:16.752Z,98322.00
2019-02-09T10:29:21.910Z,98327.00
2019-02-09T10:31:26.980Z,98320.00
2019-02-09T10:33:32.028Z,98324.00
2019-02-09T10:35:37.186Z,98343.00
2019-02-09T10:37:42.247Z,98327.00
2019-02-09T10:39:47.423Z,98325.00
2019-02-09T10:41:52.674Z,98339.00
2019-02-09T10:43:58.358Z,98332.00
2019-02-09T10:46:03.554Z,98334.00
2019-02-09T10:48:08.857Z,98342.00
2019-02-09T10:50:19.401Z,98349.00
2019-02-09T10:52:24.573Z,98348.00
2019-02-09T10:54:29.771Z,98343.00
2019-02-09T10:56:34.943Z,98347.00
2019-02-09T10:58:40.077Z,98348.00
2019-02-09T11:00:53.131Z,98338.00
2019-02-09T11:02:58.289Z,98348.00
2019-02-09T11:05:03.378Z,98343.00
2019-02-09T11:07:08.565Z,98350.00
2019-02-09T11:09:21.961Z,98342.00
2019-02-09T11:11:27.110Z,98335.00
2019-02-09T11:13:32.563Z,98322.00
2019-02-09T11:15:38.228Z,98331.00
2019-02-09T11:17:43.396Z,98333.00
2019-02-09T11:19:48.478Z,98329.00
2019-02-09T11:21:53.697Z,98316.00
2019-02-09T11:23:58.769Z,98328.00
2019-02-09T11:26:03.853Z,98327.00
2019-02-09T11:28:09.169Z,98335.00
2019-02-09T11:30:18.481Z,98324.00
2019-02-09T11:32:23.791Z,98336.00
2019-02-09T11:34:28.709Z,98341.00
2019-02-09T11:36:33.843Z,98338.00
2019-02-09T11:38:38.969Z,98333.00
2019-02-09T11:40:44.034Z,98332.00
2019-02-09T11:42:49.862Z,98325.00
2019-02-09T11:44:56.257Z,98333.00
2019-02-09T11:47:01.661Z,98347.00
2019-02-09T11:49:08.625Z,98347.00
2019-02-09T11:51:13.704Z,98350.00
2019-02-09T11:53:18.880Z,98348.00
2019-02-09T11:55:24.073Z,98354.00
2019-02-09T11:57:29.139Z,98361.00
2019-02-09T11:59:34.167Z,98350.00
2019-02-09T12:01:39.118Z,98351.00
2019-02-09T12:03:44.211Z,98349.00
2019-02-09T12:05:49.326Z,98355.00
2019-02-09T12:07:54.704Z,98350.00
2019-02-09T12:09:59.750Z,98337.00
2019-02-09T12:12:04.945Z,98344.00
2019-02-09T12:14:10.053Z,98347.00
2019-02-09T12:16:15.106Z,98349.00
2019-02-09T12:18:20.155Z,98348.00
2019-02-09T12:20:25.918Z,98347.00
2019-02-09T12:22:30.970Z,98351.00
2019-02-09T12:24:35.908Z,98347.00
2019-02-09T12:26:40.956Z,98335.00
2019-02-09T12:28:45.988Z,98335.00
2019-02-09T12:30:51.130Z,98341.00
2019-02-09T12:32:56.199Z,98352.00
2019-02-09T12:35:01.437Z,98351.00
2019-02-09T12:37:07.038Z,98334.00
2019-02-09T12:39:12.299Z,98348.00
2019-02-09T12:41:17.362Z,98347.00
2019-02-09T12:43:22.376Z,98356.00
2019-02-09T12:45:27.891Z,98344.00
2019-02-09T12:47:32.911Z,98359.00
2019-02-09T12:49:38.010Z,98338.00
2019-02-09T12:51:43.078Z,98334.00
2019-02-09T12:53:48.229Z,98331.00
2019-02-09T12:55:53.203Z,98335.00
2019-02-09T12:57:58.367Z,98339.00
2019-02-09T13:00:05.881Z,98348.00
2019-02-09T13:02:11.362Z,98345.00
2019-02-09T13:04:16.460Z,98338.00
2019-02-09T13:06:21.684Z,98335.00
2019-02-09T13:08:26.898Z,98322.00
2019-02-09T13:10:32.017Z,98335.00
2019-02-09T13:12:37.096Z,98327.00
2019-02-09T13:14:42.100Z,98354.00
2019-02-09T13:16:47.280Z,98338.00
2019-02-09T13:18:52.407Z,98349.00
2019-02-09T13:20:57.552Z,98343.00
2019-02-09T13:23:03.122Z,98352.00
2019-02-09T13:25:08.763Z,98363.00
2019-02-09T13:27:13.827Z,98367.00
2019-02-09T13:29:18.910Z,98373.00
2019-02-09T13:31:23.847Z,98362.00
2019-02-09T13:33:28.857Z,98370.00
2019-02-09T13:35:33.972Z,98357.00
2019-02-09T13:37:39.165Z,98363.00
2019-02-09T13:39:44.533Z,98357.00
2019-02-09T13:41:49.519Z,98359.00
2019-02-09T13:43:54.522Z,98370.00
2019-02-09T13:45:59.665Z,98353.00
2019-02-09T13:48:05.670Z,98367.00
2019-02-09T13:50:12.719Z,98370.00
2019-02-09T13:52:17.705Z,98387.00
2019-02-09T13:54:22.771Z,98387.00
2019-02-09T13:56:27.844Z,98374.00
2019-02-09T13:58:33.066Z,98381.00
2019-02-09T14:00:38.448Z,98380.00
2019-02-09T14:02:43.705Z,98373.00
2019-02-09T14:04:48.617Z,98372.00
2019-02-09T14:06:53.756Z,98379.00
2019-02-09T14:08:58.812Z,98367.00
2019-02-09T14:11:03.911Z,98374.00
2019-02-09T14:13:14.256Z,98387.00
2019-02-09T14:15:23.105Z,98372.00
2019-02-09T14:17:28.050Z,98377.00
2019-02-09T14:19:33.213Z,98365.00
2019-02-09T14:21:38.153Z,98348.00
2019-02-09T14:23:43.277Z,98378.00
2019-02-09T14:25:48.340Z,98372.00
2019-02-09T14:27:56.630Z,98349.00
2019-02-09T14:30:01.958Z,98362.00
2019-02-09T14:32:07.117Z,98355.00
2019-02-09T14:34:12.323Z,98364.00
2019-02-09T14:36:17.468Z,98376.00
2019-02-09T14:38:22.538Z,98390.00
2019-02-09T14:40:30.797Z,98379.00
2019-02-09T14:42:35.817Z,98382.00
2019-02-09T14:44:40.884Z,98383.00
2019-02-09T14:46:45.994Z,98379.00
2019-02-09T14:48:51.022Z,98393.00
2019-02-09T14:50:56.097Z,98400.00
2019-02-09T14:53:01.860Z,98399.00
2019-02-09T14:55:08.828Z,98420.00
2019-02-09T14:57:14.043Z,98422.00
2019-02-09T14:59:18.978Z,98422.00
2019-02-09T15:01:23.980Z,98437.00
2019-02-09T15:03:30.722Z,98444.00
2019-02-09T15:05:36.181Z,98483.00
2019-02-09T15:07:41.179Z,98495.00
2019-02-09T15:09:46.684Z,98477.00
2019-02-09T15:11:51.753Z,98479.00
2019-02-09T15:13:56.740Z,98474.00
2019-02-09T15:16:18.715Z,98477.00
2019-02-09T15:18:23.798Z,98479.00
2019-02-09T15:20:33.459Z,98477.00
2019-02-09T15:22:38.780Z,98473.00
2019-02-09T15:24:43.843Z,98481.00
2019-02-09T15:26:48.757Z,98486.00
2019-02-09T15:28:53.766Z,98491.00
2019-02-09T15:30:58.878Z,98491.00
2019-02-09T15:33:04.127Z,98477.00
2019-02-09T15:35:11.507Z,98486.00
2019-02-09T15:37:16.440Z,98477.00
2019-02-09T15:39:21.503Z,98486.00
2019-02-09T15:41:26.508Z,98492.00
2019-02-09T15:43:31.503Z,98486.00
2019-02-09T15:45:36.661Z,98486.00
2019-02-09T15:47:41.670Z,98483.00
2019-02-09T15:49:46.612Z,98495.00
2019-02-09T15:51:51.891Z,98492.00
2019-02-09T15:53:56.909Z,98491.00
2019-02-09T15:56:02.264Z,98483.00
2019-02-09T15:58:07.555Z,98492.00
2019-02-09T16:00:19.779Z,98479.00
2019-02-09T16:02:24.890Z,98485.00
2019-02-09T16:04:29.981Z,98494.00
2019-02-09T16:06:34.978Z,98493.00
2019-02-09T16:08:40.046Z,98494.00
2019-02-09T16:10:44.955Z,98499.00
2019-02-09T16:12:50.556Z,98487.00
2019-02-09T16:14:55.602Z,98505.00
2019-02-09T16:17:00.774Z,98492.00
2019-02-09T16:19:06.224Z,98508.00
2019-02-09T16:21:11.383Z,98508.00
2019-02-09T16:23:16.387Z,98509.00
2019-02-09T16:25:21.706Z,98515.00
2019-02-09T16:27:26.707Z,98509.00
2019-02-09T16:29:31.835Z,98506.00
2019-02-09T16:31:36.967Z,98505.00
2019-02-09T16:33:41.954Z,98517.00
2019-02-09T16:35:47.034Z,98512.00
2019-02-09T16:37:52.222Z,98523.00
2019-02-09T16:39:57.391Z,98518.00
2019-02-09T16:42:02.412Z,98523.00
2019-02-09T16:44:07.559Z,98525.00
2019-02-09T16:46:12.803Z,98514.00
2019-02-09T16:48:17.796Z,98528.00
2019-02-09T16:50:23.262Z,98529.00
2019-02-09T16:52:28.334Z,98541.00
2019-02-09T16:54:33.474Z,98536.00
2019-02-09T16:56:38.635Z,98527.00
2019-02-09T16:58:43.777Z,98528.00
2019-02-09T17:00:48.965Z,98539.00
2019-02-09T17:02:54.262Z,98527.00
2019-02-09T17:04:59.500Z,98538.00
2019-02-09T17:07:04.821Z,98529.00
2019-02-09T17:09:11.017Z,98538.00
2019-02-09T17:11:16.041Z,98529.00
2019-02-09T17:13:21.118Z,98531.00
2019-02-09T17:15:26.386Z,98534.00
2019-02-09T17:17:31.640Z,98549.00
2019-02-09T17:19:36.787Z,98544.00
2019-02-09T17:21:41.835Z,98541.00
2019-02-09T17:23:46.831Z,98539.00
2019-02-09T17:25:51.871Z,98553.00
2019-02-09T17:27:56.930Z,98553.00
2019-02-09T17:30:01.981Z,98548.00
2019-02-09T17:32:06.956Z,98553.00
2019-02-09T17:34:11.947Z,98570.00
2019-02-09T17:36:17.297Z,98554.00
2019-02-09T17:38:22.291Z,98559.00
2019-02-09T17:40:31.168Z,98564.00
2019-02-09T17:42:36.295Z,98561.00
2019-02-09T17:44:42.908Z,98568.00
2019-02-09T17:46:48.259Z,98576.00
2019-02-09T17:48:53.292Z,98575.00
2019-02-09T17:50:58.594Z,98592.00
2019-02-09T17:53:05.647Z,98585.00
2019-02-09T17:55:15.221Z,98586.00
2019-02-09T17:57:23.177Z,98579.00
2019-02-09T17:59:28.327Z,98565.00
2019-02-09T18:01:33.350Z,98584.00
2019-02-09T18:03:38.459Z,98580.00
2019-02-09T18:05:43.631Z,98591.00
2019-02-09T18:07:48.738Z,98605.00
2019-02-09T18:09:53.950Z,98607.00
2019-02-09T18:11:59.068Z,98598.00
2019-02-09T18:14:04.897Z,98604.00
2019-02-09T18:16:11.551Z,98619.00
2019-02-09T18:18:16.765Z,98621.00
2019-02-09T18:20:21.878Z,98606.00
2019-02-09T18:22:26.921Z,98608.00
2019-02-09T18:24:31.923Z,98610.00
2019-02-09T18:26:37.085Z,98602.00
2019-02-09T18:28:42.204Z,98595.00
2019-02-09T18:30:47.440Z,98612.00
2019-02-09T18:32:52.691Z,98616.00
2019-02-09T18:34:59.508Z,98621.00
2019-02-09T18:37:05.506Z,98621.00
2019-02-09T18:39:13.105Z,98611.00
2019-02-09T18:41:18.144Z,98622.00
2019-02-09T18:43:23.598Z,98616.00
2019-02-09T18:45:29.368Z,98630.00
2019-02-09T18:47:34.524Z,98614.00
2019-02-09T18:49:39.749Z,98625.00
2019-02-09T18:51:48.986Z,98621.00
2019-02-09T18:53:54.420Z,98611.00
2019-02-09T18:56:00.971Z,98628.00
2019-02-09T18:58:06.456Z,98600.00
2019-02-09T19:00:17.925Z,98624.00
2019-02-09T19:02:23.218Z,98629.00
2019-02-09T19:04:28.327Z,98624.00
2019-02-09T19:06:33.921Z,98616.00
2019-02-09T19:08:39.466Z,98624.00
2019-02-09T19:10:44.781Z,98625.00
2019-02-09T19:12:50.585Z,98620.00
2019-02-09T19:15:02.672Z,98622.00
2019-02-09T19:17:07.900Z,98624.00
2019-02-09T19:19:13.088Z,98624.00
2019-02-09T19:21:18.982Z,98626.00
2019-02-09T19:23:24.235Z,98636.00
2019-02-09T19:25:30.150Z,98632.00
2019-02-09T19:27:35.310Z,98628.00
2019-02-09T19:29:40.808Z,98635.00
2019-02-09T19:31:45.876Z,98638.00
2019-02-09T19:33:50.934Z,98634.00
2019-02-09T19:35:55.984Z,98623.00
2019-02-09T19:38:01.147Z,98635.00
2019-02-09T19:40:09.324Z,98633.00
2019-02-09T19:42:14.504Z,98625.00
2019-02-09T19:44:19.644Z,98630.00
2019-02-09T19:46:24.689Z,98633.00
2019-02-09T19:48:29.749Z,98639.00
2019-02-09T19:50:34.852Z,98649.00
2019-02-09T19:52:39.972Z,98627.00
2019-02-09T19:54:45.144Z,98633.00
2019-02-09T19:56:50.181Z,98637.00
2019-02-09T19:58:55.318Z,98632.00
2019-02-09T20:01:00.584Z,98636.00
2019-02-09T20:03:07.725Z,98639.00
2019-02-09T20:05:19.829Z,98641.00
2019-02-09T20:07:22.736Z,98656.00
2019-02-09T20:09:27.847Z,98647.00
2019-02-09T20:11:32.963Z,98652.00
2019-02-09T20:13:38.115Z,98648.00
2019-02-09T20:15:43.311Z,98650.00
2019-02-09T20:17:54.315Z,98642.00
2019-02-09T20:19:59.338Z,98646.00
2019-02-09T20:22:04.622Z,98647.00
2019-02-09T20:24:09.774Z,98645.00
2019-02-09T20:26:14.762Z,98651.00
2019-02-09T20:28:19.864Z,98642.00
2019-02-09T20:30:27.766Z,98633.00
2019-02-09T20:32:32.999Z,98631.00
2019-02-09T20:34:38.067Z,98629.00
2019-02-09T20:36:43.213Z,98620.00
2019-02-09T20:38:48.222Z,98629.00
2019-02-09T20:40:59.062Z,98622.00
2019-02-09T20:43:05.121Z,98625.00
2019-02-09T20:45:12.471Z,98619.00
2019-02-09T20:47:17.541Z,98629.00
2019-02-09T20:49:22.643Z,98629.00
2019-02-09T20:51:27.614Z,98634.00
2019-02-09T20:53:32.556Z,98628.00
2019-02-09T20:55:37.690Z,98625.00
2019-02-09T20:57:42.756Z,98630.00
2019-02-09T20:59:47.842Z,98630.00
2019-02-09T21:01:52.849Z,98630.00
2019-02-09T21:03:57.897Z,98630.00
2019-02-09T21:06:02.864Z,98630.00
2019-02-09T21:08:08.943Z,98623.00
2019-02-09T21:10:22.056Z,98625.00
2019-02-09T21:12:27.215Z,98626.00
2019-02-09T21:14:32.282Z,98620.00
2019-02-09T21:16:37.337Z,98633.00
2019-02-09T21:18:42.299Z,98622.00
2019-02-09T21:20:47.367Z,98628.00
2019-02-09T21:22:52.474Z,98623.00
2019-02-09T21:24:57.518Z,98626.00
2019-02-09T21:27:02.520Z,98619.00
2019-02-09T21:29:07.541Z,98621.00
2019-02-09T21:31:12.685Z,98621.00
2019-02-09T21:33:17.796Z,98607.00
2019-02-09T21:35:23.540Z,98621.00
2019-02-09T21:37:28.696Z,98620.00
2019-02-09T21:39:34.159Z,98614.00
2019-02-09T21:41:39.328Z,98614.00
2019-02-09T21:43:44.411Z,98625.00
2019-02-09T21:45:49.563Z,98609.00
2019-02-09T21:47:55.019Z,98611.00
2019-02-09T21:50:00.236Z,98620.00
2019-02-09T21:52:05.372Z,98622.00
2019-02-09T21:54:10.527Z,98621.00
2019-02-09T21:56:15.707Z,98624.00
2019-02-09T21:58:20.838Z,98627.00
2019-02-09T22:00:32.112Z,98620.00
2019-02-09T22:02:42.322Z,98621.00
2019-02-09T22:04:44.008Z,98635.00
2019-02-09T22:06:49.084Z,98625.00
2019-02-09T22:08:54.276Z,98628.00
2019-02-09T22:10:59.381Z,98620.00
2019-02-09T22:13:04.551Z,98611.00
2019-02-09T22:15:11.130Z,98606.00
2019-02-09T22:17:16.408Z,98605.00
2019-02-09T22:19:21.742Z,98605.00
2019-02-09T22:21:27.000Z,98610.00
2019-02-09T22:23:32.082Z,98603.00
2019-02-09T22:25:37.292Z,98594.00
2019-02-09T22:27:42.860Z,98595.00
2019-02-09T22:29:47.949Z,98588.00
2019-02-09T22:31:53.042Z,98587.00
2019-02-09T22:33:58.178Z,98589.00
2019-02-09T22:36:03.209Z,98583.00
2019-02-09T22:38:08.272Z,98591.00
2019-02-09T22:40:22.926Z,98580.00
2019-02-09T22:42:28.182Z,98587.00
2019-02-09T22:44:33.216Z,98586.00
2019-02-09T22:46:38.338Z,98583.00
2019-02-09T22:48:43.327Z,98581.00
2019-02-09T22:50:48.977Z,98577.00
2019-02-09T22:52:54.220Z,98575.00
2019-02-09T22:54:59.299Z,98572.00
2019-02-09T22:57:04.497Z,98563.00
2019-02-09T22:59:09.492Z,98562.00
2019-02-09T23:01:51.107Z,98569.00
2019-02-09T23:05:08.146Z,98557.00
2019-02-09T23:07:17.846Z,98558.00
2019-02-09T23:09:26.597Z,98560.00
2019-02-09T23:11:31.701Z,98559.00
2019-02-09T23:13:36.836Z,98549.00
2019-02-09T23:15:41.942Z,98556.00
2019-02-09T23:17:46.852Z,98543.00
2019-02-09T23:19:51.875Z,98537.00
2019-02-09T23:21:56.962Z,98530.00
2019-02-09T23:24:01.882Z,98541.00
2019-02-09T23:26:07.031Z,98525.00
2019-02-09T23:28:12.026Z,98526.00
2019-02-09T23:30:17.041Z,98530.00
2019-02-09T23:32:22.127Z,98511.00
2019-02-09T23:34:27.135Z,98512.00
2019-02-09T23:36:32.216Z,98507.00
2019-02-09T23:38:37.231Z,98506.00
2019-02-09T23:40:42.219Z,98508.00
2019-02-09T23:42:47.327Z,98499.00
2019-02-09T23:44:52.567Z,98491.00
2019-02-09T23:46:57.531Z,98497.00
2019-02-09T23:49:02.468Z,98493.00
2019-02-09T23:51:07.489Z,98485.00
2019-02-09T23:53:12.506Z,98491.00
2019-02-09T23:55:17.606Z,98483.00
2019-02-09T23:57:22.551Z,98489.00
2019-02-09T23:59:27.764Z,98478.00
